Time;durP1;ratioP1;P1;durP2;ratioP2;P2;SDS_P1;SDS_P2;PMS_P1;PMS_P2;Temp;Humidity;BMP_temperature;BMP_pressure;BME280_temperature;BME280_humidity;BME280_pressure;Samples;Min_cycle;Max_cycle;Signal;HPM_P1;HPM_P2
2021/07/26 00:00:29;;;;;;;6.80;4.03;;;;;;;23.06;57.68;100970.44;5037596;28;20112;-84
2021/07/26 00:02:54;;;;;;;7.10;4.40;;;;;;;23.08;57.90;100966.00;5020858;28;20036;-85
2021/07/26 00:05:19;;;;;;;6.28;4.32;;;;;;;23.10;57.77;100969.44;5020928;28;20383;-85
2021/07/26 00:07:45;;;;;;;5.40;4.57;;;;;;;23.10;57.70;100964.19;5020978;28;20053;-79
2021/07/26 00:10:10;;;;;;;5.65;4.68;;;;;;;23.09;57.71;100967.75;5037208;28;20029;-80
2021/07/26 00:12:36;;;;;;;5.55;4.88;;;;;;;23.04;57.84;100964.38;5037089;28;20391;-80
2021/07/26 00:15:05;;;;;;;5.60;4.95;;;;;;;22.96;58.24;100956.72;5053664;28;20442;-80
2021/07/26 00:17:33;;;;;;;5.82;5.22;;;;;;;22.94;58.14;100956.75;5055203;28;20032;-80
2021/07/26 00:19:59;;;;;;;6.38;5.00;;;;;;;22.91;57.88;100954.25;5037745;28;20124;-80
2021/07/26 00:22:24;;;;;;;5.97;5.05;;;;;;;22.95;57.81;100953.25;5037063;28;20055;-80
2021/07/26 00:24:50;;;;;;;6.32;5.05;;;;;;;23.00;58.09;100956.63;5020628;28;20483;-80
2021/07/26 00:27:15;;;;;;;5.95;4.88;;;;;;;23.05;58.02;100950.38;5054888;28;20044;-80
2021/07/26 00:29:40;;;;;;;5.70;5.03;;;;;;;23.07;57.98;100948.56;5053443;28;20028;-81
2021/07/26 00:32:06;;;;;;;5.03;4.43;;;;;;;23.05;57.84;100948.59;5036655;28;20025;-80
2021/07/26 00:34:32;;;;;;;5.75;4.55;;;;;;;23.08;57.85;100955.50;5036951;28;20170;-80
2021/07/26 00:36:58;;;;;;;4.75;4.25;;;;;;;23.06;57.50;100939.84;5020307;28;20032;-80
2021/07/26 00:39:26;;;;;;;6.40;4.85;;;;;;;23.05;58.12;100942.50;5054513;28;20025;-80
2021/07/26 00:41:53;;;;;;;5.47;4.50;;;;;;;23.05;57.91;100945.13;5053091;28;20051;-80
2021/07/26 00:44:22;;;;;;;5.00;4.50;;;;;;;23.05;57.97;100948.59;5052769;28;20547;-80
2021/07/26 00:46:48;;;;;;;5.38;4.60;;;;;;;23.07;57.64;100941.53;5054728;28;20075;-79
2021/07/26 00:49:15;;;;;;;4.25;3.85;;;;;;;23.07;57.83;100938.91;5053263;28;20037;-80
2021/07/26 00:51:44;;;;;;;5.30;4.40;;;;;;;23.07;57.59;100930.19;5036327;28;20040;-80
2021/07/26 00:54:12;;;;;;;5.38;4.72;;;;;;;23.02;57.77;100929.44;5052736;28;20037;-79
2021/07/26 00:56:38;;;;;;;5.65;4.65;;;;;;;22.97;57.64;100927.81;5052703;28;20029;-79
2021/07/26 00:59:03;;;;;;;7.47;4.13;;;;;;;22.99;57.74;100933.00;5019820;28;20041;-79
2021/07/26 01:01:29;;;;;;;5.75;4.20;;;;;;;23.01;58.07;100925.97;5052844;28;20472;-79
2021/07/26 01:03:55;;;;;;;4.75;4.25;;;;;;;23.02;57.92;100932.97;5052894;28;20127;-79
2021/07/26 01:06:20;;;;;;;5.93;4.10;;;;;;;23.07;57.82;100933.66;5036172;28;20021;-79
2021/07/26 01:08:47;;;;;;;5.50;4.28;;;;;;;23.08;57.49;100922.28;5036503;28;20029;-79
2021/07/26 01:11:13;;;;;;;5.35;4.35;;;;;;;23.00;57.54;100924.28;5035960;28;20045;-80
2021/07/26 01:13:38;;;;;;;4.90;4.20;;;;;;;23.02;57.71;100919.84;5036242;28;20451;-79
2021/07/26 01:16:05;;;;;;;4.57;4.18;;;;;;;23.05;57.53;100921.50;5036241;28;20055;-80
2021/07/26 01:18:32;;;;;;;4.75;4.15;;;;;;;23.02;57.74;100922.47;5052705;28;20029;-79
2021/07/26 01:21:09;;;;;;;7.10;4.50;;;;;;;23.06;57.43;100917.94;5036081;28;20134;-79
2021/07/26 01:23:40;;;;;;;4.35;3.92;;;;;;;23.05;57.60;100918.88;5052404;28;20025;-79
2021/07/26 01:26:09;;;;;;;5.25;4.30;;;;;;;23.03;57.52;100920.69;5052304;28;20036;-79
2021/07/26 01:28:37;;;;;;;4.68;4.13;;;;;;;23.05;57.88;100911.84;5052625;28;20075;-79
2021/07/26 01:31:03;;;;;;;4.45;4.05;;;;;;;23.03;57.86;100918.91;5052196;28;20071;-80
2021/07/26 01:33:29;;;;;;;4.80;4.03;;;;;;;23.00;57.40;100913.78;5053783;28;20021;-79
2021/07/26 01:35:55;;;;;;;4.72;4.22;;;;;;;22.93;57.60;100915.69;5052114;28;20021;-80
2021/07/26 01:38:21;;;;;;;6.20;4.75;;;;;;;22.87;57.82;100909.78;5052261;28;20032;-79
2021/07/26 01:40:53;;;;;;;5.50;4.50;;;;;;;22.93;57.67;100922.69;5019160;28;20382;-80
2021/07/26 01:43:18;;;;;;;6.93;4.25;;;;;;;22.89;57.60;100923.72;5052190;28;20076;-79
2021/07/26 01:45:56;;;;;;;5.53;4.93;;;;;;;22.84;58.03;100915.94;5019085;28;20116;-80
2021/07/26 01:48:27;;;;;;;6.13;4.57;;;;;;;22.89;58.04;100924.56;5052051;28;20056;-80
2021/07/26 01:51:12;;;;;;;5.88;4.55;;;;;;;22.94;57.42;100925.28;5052247;28;20471;-79
2021/07/26 01:53:39;;;;;;;4.57;4.10;;;;;;;22.98;57.50;100926.03;5051984;28;20111;-78
2021/07/26 01:56:05;;;;;;;6.05;4.40;;;;;;;22.97;57.35;100933.06;5018837;28;20059;-79
2021/07/26 01:58:30;;;;;;;5.40;4.28;;;;;;;23.01;57.28;100933.84;5035403;28;20037;-79
2021/07/26 02:00:56;;;;;;;5.13;4.57;;;;;;;23.01;57.68;100931.22;5035573;28;20056;-79
2021/07/26 02:03:21;;;;;;;5.15;4.55;;;;;;;22.96;57.79;100925.22;5035337;28;20046;-79
2021/07/26 02:05:46;;;;;;;4.93;4.40;;;;;;;22.95;57.82;100923.50;5035374;28;20119;-79
2021/07/26 02:08:12;;;;;;;5.68;4.18;;;;;;;22.96;57.81;100927.84;5052141;28;20036;-79
2021/07/26 02:10:37;;;;;;;5.68;4.30;;;;;;;22.98;57.64;100932.16;5051826;28;20036;-79
2021/07/26 02:13:02;;;;;;;4.95;4.03;;;;;;;22.99;57.75;100919.88;5018907;28;20438;-79
2021/07/26 02:15:28;;;;;;;4.40;4.00;;;;;;;23.01;57.63;100923.34;5052152;28;20464;-79
2021/07/26 02:17:53;;;;;;;4.80;4.00;;;;;;;23.04;57.40;100920.66;5035608;28;20037;-79
2021/07/26 02:20:20;;;;;;;4.28;3.88;;;;;;;23.04;57.16;100919.75;5035154;28;20039;-80
2021/07/26 02:22:45;;;;;;;6.00;3.75;;;;;;;23.05;57.46;100927.59;5051828;28;20090;-79
2021/07/26 02:25:11;;;;;;;5.65;3.85;;;;;;;23.07;57.39;100923.16;5035490;28;20463;-79
2021/07/26 02:27:37;;;;;;;4.30;3.90;;;;;;;23.06;57.35;100918.84;5018807;28;20032;-80
2021/07/26 02:30:03;;;;;;;4.47;4.00;;;;;;;23.06;57.61;100917.94;5018664;28;20468;-79
2021/07/26 02:32:28;;;;;;;5.03;4.13;;;;;;;23.04;57.51;100915.41;5052771;28;20025;-79
2021/07/26 02:34:54;;;;;;;4.20;3.83;;;;;;;23.05;57.72;100911.00;5034977;28;20486;-80
2021/07/26 02:37:19;;;;;;;4.28;3.88;;;;;;;23.05;57.45;100911.84;5051659;28;20468;-79
2021/07/26 02:39:44;;;;;;;4.40;4.00;;;;;;;23.06;57.20;100907.44;5035102;28;20108;-79
2021/07/26 02:42:10;;;;;;;4.63;3.80;;;;;;;23.06;57.20;100915.31;5034957;28;20405;-80
2021/07/26 02:44:35;;;;;;;6.03;4.22;;;;;;;23.05;57.33;100919.72;5034915;28;20029;-80
2021/07/26 02:47:01;;;;;;;5.32;3.92;;;;;;;23.05;57.36;100917.09;5035010;28;20029;-79
2021/07/26 02:49:26;;;;;;;5.55;4.00;;;;;;;23.04;57.24;100925.00;5035464;28;20040;-80
2021/07/26 02:51:52;;;;;;;5.53;3.90;;;;;;;23.05;57.24;100917.09;5018579;28;20392;-79
2021/07/26 02:54:17;;;;;;;4.00;3.60;;;;;;;23.04;57.10;100925.91;5035225;28;20029;-84
2021/07/26 02:56:43;;;;;;;4.80;3.70;;;;;;;23.04;57.40;100917.13;5053047;28;20043;-84
2021/07/26 02:59:09;;;;;;;4.38;3.63;;;;;;;23.04;57.33;100920.66;5052165;28;20112;-84
2021/07/26 03:01:34;;;;;;;4.57;3.80;;;;;;;23.03;57.46;100921.53;5051901;28;20475;-84
2021/07/26 03:04:01;;;;;;;3.67;3.28;;;;;;;23.05;57.40;100921.50;5035176;28;20357;-85
2021/07/26 03:06:26;;;;;;;4.85;3.60;;;;;;;23.04;57.11;100923.28;5051645;28;20021;-84
2021/07/26 03:08:51;;;;;;;5.22;4.18;;;;;;;23.03;57.01;100921.53;5054529;28;20029;-85
2021/07/26 03:11:19;;;;;;;5.35;3.92;;;;;;;23.03;57.39;100928.56;5039049;28;20033;-85
2021/07/26 03:13:45;;;;;;;5.20;3.95;;;;;;;23.02;57.03;100932.06;5038915;28;20029;-85
2021/07/26 03:16:12;;;;;;;4.55;3.67;;;;;;;23.02;56.95;100929.44;5038853;28;20475;-85
2021/07/26 03:18:38;;;;;;;5.20;4.00;;;;;;;23.02;57.27;100930.34;5055123;28;20029;-85
2021/07/26 03:21:04;;;;;;;3.97;3.58;;;;;;;23.03;57.41;100929.41;5038212;28;20494;-84
2021/07/26 03:23:30;;;;;;;4.28;3.72;;;;;;;23.02;57.34;100935.59;5054694;28;20039;-85
2021/07/26 03:25:56;;;;;;;4.05;3.65;;;;;;;23.03;57.26;100942.53;5038406;28;20028;-85
2021/07/26 03:28:21;;;;;;;5.30;3.97;;;;;;;23.04;57.01;100938.13;5074456;28;20458;-85
2021/07/26 03:30:47;;;;;;;6.47;3.70;;;;;;;23.03;57.05;100944.31;5072584;28;20029;-85
2021/07/26 03:33:12;;;;;;;3.83;3.53;;;;;;;23.04;57.20;100943.38;5055783;28;20067;-85
2021/07/26 03:35:38;;;;;;;3.83;3.42;;;;;;;23.04;57.29;100941.66;5054989;28;20036;-81
2021/07/26 03:38:05;;;;;;;4.13;3.72;;;;;;;23.04;57.43;100946.91;5055857;28;20029;-81
2021/07/26 03:40:34;;;;;;;4.30;3.58;;;;;;;23.05;57.36;100947.75;5038127;28;20449;-81
2021/07/26 03:43:01;;;;;;;4.05;3.65;;;;;;;23.04;57.24;100940.75;5054197;28;20566;-81
2021/07/26 03:45:28;;;;;;;4.15;3.78;;;;;;;23.03;56.97;100939.06;5055622;28;20426;-81
2021/07/26 03:47:56;;;;;;;4.15;3.65;;;;;;;23.00;57.34;100940.88;5037856;28;20036;-80
2021/07/26 03:50:22;;;;;;;4.32;3.92;;;;;;;22.97;57.23;100943.56;5021818;28;20052;-81
2021/07/26 03:52:52;;;;;;;4.32;3.92;;;;;;;22.98;57.17;100942.66;5054022;28;20144;-80
2021/07/26 03:55:19;;;;;;;4.65;3.90;;;;;;;22.97;56.94;100951.44;5037630;28;20033;-79
2021/07/26 03:57:46;;;;;;;5.03;4.40;;;;;;;22.98;57.21;100945.28;5055293;28;20036;-81
2021/07/26 04:00:12;;;;;;;4.55;3.78;;;;;;;23.01;57.18;100954.84;5053989;28;20033;-80
2021/07/26 04:02:39;;;;;;;4.63;4.00;;;;;;;22.99;57.28;100954.00;5054039;28;20025;-79
2021/07/26 04:05:07;;;;;;;4.97;3.88;;;;;;;23.00;57.15;100953.13;5054400;28;20040;-80
2021/07/26 04:07:35;;;;;;;6.20;4.47;;;;;;;23.03;56.91;100957.44;5037677;28;20058;-79
2021/07/26 04:10:05;;;;;;;4.30;3.90;;;;;;;23.02;57.25;100950.44;5054508;28;20063;-79
2021/07/26 04:12:32;;;;;;;4.55;4.05;;;;;;;23.02;56.98;100959.19;5042209;28;20055;-79
2021/07/26 04:14:58;;;;;;;4.20;3.78;;;;;;;22.99;56.90;100959.25;5028332;28;20029;-79
2021/07/26 04:17:24;;;;;;;4.55;4.10;;;;;;;22.99;56.86;100961.88;5055128;28;20029;-79
2021/07/26 04:19:49;;;;;;;4.00;3.55;;;;;;;22.99;57.20;100961.88;5053513;28;20036;-79
2021/07/26 04:22:16;;;;;;;3.72;3.42;;;;;;;23.02;57.21;100963.56;5037219;28;20028;-80
2021/07/26 04:24:42;;;;;;;3.70;3.38;;;;;;;23.03;57.17;100957.44;5053532;28;20052;-80
2021/07/26 04:27:07;;;;;;;4.40;3.65;;;;;;;23.00;56.63;100953.13;5020277;28;20029;-77
2021/07/26 04:29:32;;;;;;;4.88;3.92;;;;;;;23.02;56.79;100967.06;5037005;28;20029;-78
2021/07/26 04:31:58;;;;;;;4.18;3.78;;;;;;;23.03;56.90;100958.28;5036655;28;20060;-77
2021/07/26 04:34:24;;;;;;;4.38;3.70;;;;;;;23.04;57.09;100959.13;5020657;28;20107;-78
2021/07/26 04:36:50;;;;;;;4.15;3.75;;;;;;;23.04;56.98;100961.75;5053489;28;20033;-78
2021/07/26 04:39:15;;;;;;;5.20;3.80;;;;;;;23.03;57.04;100960.06;5036602;28;20386;-77
2021/07/26 04:41:40;;;;;;;4.00;3.60;;;;;;;23.02;56.77;100960.94;5036520;28;20025;-78
2021/07/26 04:44:06;;;;;;;4.05;3.67;;;;;;;22.99;57.11;100954.88;5036321;28;20048;-79
2021/07/26 04:46:31;;;;;;;4.32;3.83;;;;;;;22.99;56.83;100962.75;5019899;28;20123;-79
2021/07/26 04:48:57;;;;;;;5.00;3.90;;;;;;;22.99;56.88;100957.50;5036559;28;20025;-77
2021/07/26 04:51:22;;;;;;;6.45;3.92;;;;;;;23.03;57.16;100957.44;5036297;28;20075;-77
2021/07/26 04:53:48;;;;;;;4.00;3.60;;;;;;;23.04;56.93;100957.41;5019794;28;20117;-77
2021/07/26 04:56:13;;;;;;;4.03;3.45;;;;;;;23.00;56.96;100955.75;5036386;28;20035;-78
2021/07/26 04:58:38;;;;;;;4.30;3.90;;;;;;;22.98;56.87;100953.16;5036067;28;20131;-77
2021/07/26 05:01:04;;;;;;;4.13;3.70;;;;;;;23.02;56.95;100953.06;5019744;28;20028;-78
2021/07/26 05:03:30;;;;;;;4.70;4.00;;;;;;;22.98;56.84;100941.78;5036217;28;20029;-80
2021/07/26 05:05:55;;;;;;;3.90;3.50;;;;;;;23.03;57.06;100945.16;5019883;28;20036;-77
2021/07/26 05:08:20;;;;;;;5.32;3.63;;;;;;;23.04;56.94;100941.66;5036285;28;20029;-77
2021/07/26 05:10:47;;;;;;;4.57;3.65;;;;;;;23.09;56.67;100946.75;5019448;28;20119;-82
2021/07/26 05:13:13;;;;;;;4.50;3.60;;;;;;;23.12;56.61;100942.25;5052796;28;20036;-77
2021/07/26 05:15:39;;;;;;;6.32;3.90;;;;;;;23.31;55.92;100946.94;5053136;28;20037;-84
2021/07/26 05:18:04;;;;;;;9.43;4.25;;;;;;;23.33;56.33;100951.22;5037090;28;20486;-85
2021/07/26 05:20:32;;;;;;;10.57;5.93;;;;;;;23.23;56.94;100954.19;5021140;28;20060;-83
2021/07/26 05:22:58;;;;;;;7.38;5.97;;;;;;;23.11;56.79;100948.41;5021164;28;20029;-84
2021/07/26 05:25:23;;;;;;;8.90;6.60;;;;;;;23.02;57.24;100942.56;5052999;28;20375;-84
2021/07/26 05:27:48;;;;;;;10.13;7.13;;;;;;;22.99;57.09;100938.25;5019959;28;20028;-83
2021/07/26 05:30:14;;;;;;;8.52;6.80;;;;;;;22.95;57.19;100941.88;5020064;28;20032;-83
2021/07/26 05:32:39;;;;;;;11.48;6.97;;;;;;;22.92;57.27;100937.56;5019541;28;20036;-83
2021/07/26 05:35:05;;;;;;;10.48;6.30;;;;;;;22.91;57.69;100945.53;5053233;28;20025;-83
2021/07/26 05:37:30;;;;;;;8.50;6.40;;;;;;;22.89;57.37;100940.31;5035962;28;20368;-84
2021/07/26 05:39:56;;;;;;;8.70;6.47;;;;;;;22.87;57.34;100942.13;5036538;28;20024;-83
2021/07/26 05:42:21;;;;;;;9.90;7.15;;;;;;;22.87;57.00;100941.25;5020084;28;20083;-84
2021/07/26 05:44:47;;;;;;;7.85;6.63;;;;;;;22.86;57.28;100945.63;5020565;28;20033;-84
2021/07/26 05:47:12;;;;;;;8.57;7.20;;;;;;;22.84;57.31;100942.19;5036880;28;20032;-84
2021/07/26 05:49:38;;;;;;;6.97;6.28;;;;;;;22.83;57.22;100939.63;5035857;28;20029;-83
2021/07/26 05:52:04;;;;;;;11.88;7.13;;;;;;;22.84;57.11;100939.56;5053008;28;20029;-83
2021/07/26 05:54:29;;;;;;;7.85;6.93;;;;;;;23.02;57.02;100938.22;5037097;28;20033;-83
2021/07/26 05:56:55;;;;;;;7.53;6.72;;;;;;;23.64;55.07;100931.81;5054303;28;20020;-83
2021/07/26 05:59:21;;;;;;;9.18;6.93;;;;;;;25.37;49.96;100931.66;5020872;28;20041;-82
2021/07/26 06:04:15;;;;;;;7.28;6.28;;;;;;;26.20;47.54;100917.66;5052976;28;20471;-81
2021/07/26 06:06:45;;;;;;;8.82;6.40;;;;;;;26.26;47.44;100918.22;5052799;28;20021;-81
2021/07/26 06:09:11;;;;;;;7.28;5.95;;;;;;;26.03;48.34;100919.22;5052751;28;20123;-81
2021/07/26 06:11:41;;;;;;;9.10;6.22;;;;;;;26.30;47.53;100913.66;5052854;28;20211;-81
2021/07/26 06:14:07;;;;;;;7.95;6.55;;;;;;;25.69;49.03;100921.56;5053467;28;20074;-81
2021/07/26 06:16:33;;;;;;;9.20;6.38;;;;;;;25.81;49.00;100916.63;5052892;28;20476;-82
2021/07/26 06:19:00;;;;;;;8.13;6.93;;;;;;;25.60;49.59;100921.03;5053403;28;20039;-82
2021/07/26 06:21:26;;;;;;;7.32;6.63;;;;;;;25.65;49.35;100915.56;5035668;28;20120;-82
2021/07/26 06:23:51;;;;;;;7.32;6.53;;;;;;;25.43;50.05;100923.50;5036368;28;20059;-82
2021/07/26 06:26:16;;;;;;;8.50;6.65;;;;;;;25.56;49.67;100923.88;5019867;28;20025;-82
2021/07/26 06:28:42;;;;;;;9.77;7.13;;;;;;;25.59;49.91;100923.75;5035913;28;20083;-82
2021/07/26 06:31:07;;;;;;;10.38;7.03;;;;;;;25.48;50.04;100928.59;5052062;28;20036;-81
2021/07/26 06:33:53;;;;;;;9.65;7.20;;;;;;;25.21;50.86;100934.91;5019160;28;20116;-82
2021/07/26 06:36:18;;;;;;;8.13;6.95;;;;;;;25.24;51.03;100932.19;5052340;28;20029;-82
2021/07/26 06:38:44;;;;;;;8.10;7.20;;;;;;;25.06;51.62;100924.97;5051991;28;20036;-81
2021/07/26 06:41:09;;;;;;;8.38;7.47;;;;;;;25.17;51.30;100929.81;5018799;28;20033;-83
2021/07/26 06:43:34;;;;;;;11.77;7.53;;;;;;;25.20;51.50;100933.22;5054265;28;20055;-81
2021/07/26 06:46:04;;;;;;;9.10;7.03;;;;;;;24.65;52.92;100945.88;5039100;28;20078;-81
2021/07/26 06:48:29;;;;;;;8.60;7.03;;;;;;;24.16;54.26;100945.84;5039303;28;20467;-82
2021/07/26 06:50:54;;;;;;;8.48;6.15;;;;;;;23.90;55.17;100946.75;5038981;28;20078;-82
2021/07/26 06:53:20;;;;;;;11.65;6.40;;;;;;;23.77;55.66;100950.69;5022198;28;20120;-82
2021/07/26 06:55:45;;;;;;;10.45;5.25;;;;;;;23.70;55.89;100960.53;5038722;28;20032;-83
2021/07/26 06:58:10;;;;;;;6.80;5.10;;;;;;;23.69;56.08;100950.06;5038558;28;20119;-83
2021/07/26 07:00:36;;;;;;;6.97;4.97;;;;;;;23.66;56.00;100953.66;5022497;28;20021;-83
2021/07/26 07:03:01;;;;;;;9.13;4.97;;;;;;;23.67;55.99;100963.28;5055121;28;20033;-82
2021/07/26 07:05:27;;;;;;;7.35;4.60;;;;;;;23.68;55.94;100959.72;5038693;28;20040;-82
2021/07/26 07:07:52;;;;;;;5.75;4.20;;;;;;;23.68;55.91;100969.38;5021954;28;20036;-82
2021/07/26 07:10:18;;;;;;;6.68;4.70;;;;;;;23.70;55.80;100978.06;5021943;28;20029;-83
2021/07/26 07:12:44;;;;;;;7.00;4.70;;;;;;;23.70;55.95;100983.31;5038275;28;20482;-82
2021/07/26 07:15:10;;;;;;;7.82;4.82;;;;;;;23.71;55.71;100979.78;5022041;28;20024;-83
2021/07/26 07:17:36;;;;;;;6.88;4.80;;;;;;;23.72;55.83;100977.09;5021778;28;20036;-82
2021/07/26 07:20:02;;;;;;;6.68;5.00;;;;;;;23.79;55.96;100973.38;5038359;28;20497;-84
2021/07/26 07:22:28;;;;;;;4.88;4.38;;;;;;;23.86;55.56;100978.44;5038044;28;20100;-84
2021/07/26 07:24:53;;;;;;;8.23;4.22;;;;;;;23.85;55.30;100971.47;5054685;28;20060;-84
2021/07/26 07:27:18;;;;;;;7.90;4.43;;;;;;;23.83;55.56;100971.53;5037940;28;20025;-84
2021/07/26 07:29:44;;;;;;;5.63;4.57;;;;;;;23.87;55.42;100975.78;5022970;28;20040;-84
2021/07/26 07:32:12;;;;;;;4.88;4.30;;;;;;;23.95;55.35;100972.88;5022454;28;20029;-84
2021/07/26 07:34:39;;;;;;;5.00;4.47;;;;;;;24.06;55.01;100970.72;5038290;28;20036;-84
2021/07/26 07:37:07;;;;;;;7.10;4.18;;;;;;;24.40;53.90;100964.28;5054506;28;20463;-84
2021/07/26 07:39:32;;;;;;;4.57;4.05;;;;;;;24.68;52.83;100973.84;5038346;28;20086;-83
2021/07/26 07:41:58;;;;;;;4.88;4.38;;;;;;;24.88;52.36;100967.81;5021084;28;20021;-83
2021/07/26 07:44:29;;;;;;;5.78;4.10;;;;;;;24.89;52.40;100967.78;5021112;28;20057;-83
2021/07/26 07:46:54;;;;;;;6.68;4.25;;;;;;;24.83;52.34;100966.22;5038528;28;20471;-84
2021/07/26 07:49:20;;;;;;;4.30;3.80;;;;;;;24.56;53.42;100968.13;5037841;28;20039;-81
2021/07/26 07:51:45;;;;;;;4.78;3.80;;;;;;;24.45;54.08;100975.50;5023522;28;20029;-82
2021/07/26 07:54:12;;;;;;;5.35;4.38;;;;;;;24.58;53.37;100970.66;5021831;28;20029;-82
2021/07/26 07:56:38;;;;;;;7.30;4.32;;;;;;;24.58;53.28;100974.16;5023168;28;20025;-82
2021/07/26 07:59:05;;;;;;;4.97;3.65;;;;;;;24.43;53.86;100969.41;5021771;28;20406;-83
2021/07/26 08:01:31;;;;;;;4.50;4.00;;;;;;;24.25;54.07;100968.31;5038272;28;20383;-82
2021/07/26 08:03:57;;;;;;;5.32;4.63;;;;;;;24.26;54.25;100966.53;5054324;28;20387;-82
2021/07/26 08:06:23;;;;;;;6.43;4.07;;;;;;;24.15;54.72;100970.44;5055414;28;20032;-83
2021/07/26 08:08:48;;;;;;;5.78;4.45;;;;;;;24.09;54.84;100970.63;5037471;28;20029;-83
2021/07/26 08:11:14;;;;;;;6.00;4.68;;;;;;;24.10;54.74;100971.50;5037708;28;20041;-83
2021/07/26 08:13:39;;;;;;;6.68;4.50;;;;;;;24.23;54.75;100978.03;5053751;28;20021;-83
2021/07/26 08:16:05;;;;;;;6.60;4.60;;;;;;;24.28;54.23;100976.13;5053853;28;20116;-83
2021/07/26 08:18:32;;;;;;;4.93;4.50;;;;;;;24.23;54.46;100968.38;5054441;28;20037;-83
2021/07/26 08:20:58;;;;;;;6.07;4.40;;;;;;;24.41;54.04;100979.13;5037154;28;20024;-83
2021/07/26 08:23:24;;;;;;;5.47;4.22;;;;;;;24.35;54.08;100979.38;5053543;28;20115;-83
2021/07/26 08:25:49;;;;;;;5.55;4.57;;;;;;;24.29;54.21;100983.06;5037148;28;20120;-83
2021/07/26 08:28:15;;;;;;;5.85;4.32;;;;;;;24.50;53.82;100977.97;5036955;28;20024;-83
2021/07/26 08:30:41;;;;;;;6.82;4.10;;;;;;;24.56;53.86;100977.75;5053350;28;20113;-85
2021/07/26 08:33:07;;;;;;;5.30;4.57;;;;;;;24.43;53.88;100978.19;5036786;28;20032;-85
2021/07/26 08:35:34;;;;;;;6.05;4.20;;;;;;;24.51;53.90;100980.56;5053602;28;20020;-85
2021/07/26 08:37:59;;;;;;;4.72;3.95;;;;;;;24.33;54.43;100976.81;5037114;28;20489;-85
2021/07/26 08:40:27;;;;;;;4.95;4.10;;;;;;;24.37;54.36;100982.81;5020771;28;20067;-85
2021/07/26 08:42:54;;;;;;;4.38;3.97;;;;;;;24.52;54.07;100977.03;5053201;28;20045;-85
2021/07/26 08:45:19;;;;;;;5.50;4.10;;;;;;;24.37;54.17;100964.41;5053741;28;20090;-85
2021/07/26 08:47:47;;;;;;;5.43;4.20;;;;;;;24.35;54.13;100974.13;5053527;28;20123;-85
2021/07/26 08:50:17;;;;;;;5.78;4.85;;;;;;;24.37;54.27;100967.88;5057105;28;20025;-85
2021/07/26 08:52:48;;;;;;;4.55;4.15;;;;;;;24.46;53.93;100965.84;5057129;28;20387;-85
2021/07/26 08:55:15;;;;;;;4.45;4.05;;;;;;;24.54;53.57;100963.81;5054490;28;20044;-85
2021/07/26 08:57:42;;;;;;;4.82;4.35;;;;;;;24.56;53.65;100957.59;5037162;28;20025;-85
2021/07/26 09:00:10;;;;;;;4.97;3.97;;;;;;;24.50;53.67;100959.56;5036941;28;20025;-84
2021/07/26 09:02:35;;;;;;;4.07;3.55;;;;;;;24.44;53.78;100965.91;5037360;28;20021;-85
2021/07/26 09:05:01;;;;;;;4.60;3.90;;;;;;;24.48;53.85;100962.28;5020515;28;20031;-84
2021/07/26 09:07:26;;;;;;;4.03;3.63;;;;;;;24.43;53.94;100970.31;5036950;28;20056;-84
2021/07/26 09:09:52;;;;;;;4.32;3.67;;;;;;;24.34;54.35;100969.75;5036702;28;20041;-85
2021/07/26 09:12:36;;;;;;;4.05;3.53;;;;;;;24.33;54.37;100970.69;5052917;28;20020;-85
2021/07/26 09:15:03;;;;;;;4.93;3.80;;;;;;;24.47;53.88;100964.91;5036641;28;20020;-84
2021/07/26 09:17:47;;;;;;;4.20;3.80;;;;;;;24.48;53.71;100969.28;5036151;28;20534;-84
2021/07/26 09:20:13;;;;;;;4.93;3.67;;;;;;;24.46;54.06;100961.44;5052694;28;20490;-83
2021/07/26 09:22:47;;;;;;;4.57;4.05;;;;;;;24.37;54.12;100967.03;5035751;28;20040;-85
2021/07/26 09:25:29;;;;;;;3.90;3.42;;;;;;;24.32;54.47;100958.44;5052467;28;20036;-85
2021/07/26 09:28:09;;;;;;;3.85;3.45;;;;;;;24.27;54.45;100961.22;5052583;28;20108;-84
2021/07/26 09:30:43;;;;;;;4.20;3.80;;;;;;;24.20;54.62;100963.22;5053898;28;20017;-80
2021/07/26 09:33:23;;;;;;;4.85;4.35;;;;;;;24.16;54.85;100968.66;5052228;28;20043;-81
2021/07/26 09:36:30;;;;;;;4.82;4.43;;;;;;;24.11;55.20;100971.44;5052373;28;20421;-82
2021/07/26 09:38:56;;;;;;;5.72;4.93;;;;;;;24.07;54.99;100974.22;5038196;28;20502;-83
2021/07/26 09:41:45;;;;;;;5.05;4.65;;;;;;;24.05;55.01;100968.16;5035967;28;20025;-83
2021/07/26 09:44:12;;;;;;;5.68;4.85;;;;;;;24.04;55.38;100972.56;5052050;28;20495;-83
2021/07/26 09:46:43;;;;;;;4.72;4.32;;;;;;;24.05;55.43;100965.53;5052098;28;20037;-82
2021/07/26 09:49:10;;;;;;;3.90;3.50;;;;;;;24.10;55.21;100971.50;5052189;28;20033;-81
2021/07/26 09:51:36;;;;;;;4.80;4.30;;;;;;;24.14;55.02;100976.56;5052115;28;20049;-81
2021/07/26 09:54:01;;;;;;;4.78;4.38;;;;;;;24.15;54.77;100980.06;5052192;28;20063;-81
2021/07/26 09:56:30;;;;;;;4.75;4.35;;;;;;;24.12;54.81;100974.91;5035621;28;20036;-82
2021/07/26 09:58:55;;;;;;;5.10;4.60;;;;;;;24.12;54.71;100964.41;5053294;28;20514;-82
2021/07/26 10:01:23;;;;;;;4.85;4.45;;;;;;;24.16;54.73;100966.03;5036069;28;20029;-81
2021/07/26 10:03:51;;;;;;;4.90;4.40;;;;;;;24.17;54.79;100957.19;5053511;28;20025;-80
2021/07/26 10:06:18;;;;;;;5.75;5.25;;;;;;;24.16;54.72;100966.03;5054309;28;20116;-81
2021/07/26 10:08:44;;;;;;;4.85;4.43;;;;;;;24.13;54.81;100968.78;5053172;28;20025;-82
2021/07/26 10:11:09;;;;;;;5.00;4.50;;;;;;;24.09;55.06;100964.53;5037828;28;20167;-82
2021/07/26 10:13:38;;;;;;;5.38;4.50;;;;;;;24.03;55.56;100969.06;5053278;28;20029;-81
2021/07/26 10:16:04;;;;;;;5.15;4.65;;;;;;;24.03;55.30;100978.72;5053438;28;20115;-83
2021/07/26 10:18:30;;;;;;;6.50;4.82;;;;;;;24.03;55.44;100976.09;5057864;28;20033;-83
2021/07/26 10:21:07;;;;;;;5.15;4.65;;;;;;;24.07;55.35;100971.59;5041152;28;20036;-83
2021/07/26 10:23:46;;;;;;;5.50;5.00;;;;;;;24.11;55.38;100970.59;5056825;28;20078;-83
2021/07/26 10:26:14;;;;;;;4.75;4.32;;;;;;;24.11;55.34;100962.69;5056977;28;20483;-84
2021/07/26 10:28:54;;;;;;;5.78;4.22;;;;;;;24.13;54.93;100969.63;5057373;28;20056;-83
2021/07/26 10:31:32;;;;;;;5.22;4.72;;;;;;;24.11;55.09;100973.22;5056204;28;20025;-82
2021/07/26 10:34:04;;;;;;;4.72;4.32;;;;;;;24.10;54.95;100972.34;5056342;28;20479;-83
2021/07/26 10:36:42;;;;;;;6.45;4.85;;;;;;;24.12;55.27;100964.41;5056871;28;20491;-83
2021/07/26 10:39:11;;;;;;;5.90;5.40;;;;;;;24.14;54.91;100971.31;5058351;28;20363;-83
2021/07/26 10:41:56;;;;;;;4.65;4.25;;;;;;;24.12;55.02;100974.91;5056710;28;20021;-83
2021/07/26 10:44:21;;;;;;;5.10;4.60;;;;;;;24.11;55.03;100976.69;5056164;28;20081;-83
2021/07/26 10:46:56;;;;;;;5.28;4.30;;;;;;;24.10;55.02;100980.22;5056262;28;20025;-83
2021/07/26 10:49:51;;;;;;;5.68;4.72;;;;;;;24.11;54.92;100970.59;5056677;28;20037;-84
2021/07/26 10:52:22;;;;;;;5.50;5.00;;;;;;;24.14;54.85;100979.22;5047252;28;20560;-83
2021/07/26 10:54:49;;;;;;;5.82;5.32;;;;;;;24.15;55.09;100980.06;5055463;28;20024;-83
2021/07/26 10:57:34;;;;;;;7.05;5.20;;;;;;;24.14;55.24;100981.00;5038747;28;20059;-83
2021/07/26 11:00:25;;;;;;;5.10;4.70;;;;;;;24.15;55.16;100975.69;5055025;28;20032;-83
2021/07/26 11:02:51;;;;;;;4.95;4.45;;;;;;;24.16;54.98;100977.38;5055137;28;20020;-84
2021/07/26 11:05:25;;;;;;;4.97;4.57;;;;;;;24.18;54.83;100977.34;5038612;28;20044;-83
2021/07/26 11:08:18;;;;;;;4.53;4.13;;;;;;;24.17;54.71;100976.50;5055334;28;20021;-82
2021/07/26 11:10:44;;;;;;;5.22;4.72;;;;;;;24.16;54.70;100973.91;5055029;28;20047;-83
2021/07/26 11:13:10;;;;;;;5.68;5.18;;;;;;;24.16;54.81;100981.78;5054908;28;20025;-83
2021/07/26 11:15:52;;;;;;;5.13;4.72;;;;;;;24.15;55.23;100978.31;5054920;28;20025;-83
2021/07/26 11:18:28;;;;;;;5.40;4.90;;;;;;;24.14;55.03;100978.34;5054663;28;20061;-83
2021/07/26 11:21:03;;;;;;;5.00;4.60;;;;;;;24.15;54.99;100967.78;5055000;28;20037;-83
2021/07/26 11:23:35;;;;;;;4.80;4.30;;;;;;;24.14;54.94;100971.31;5039157;28;20143;-83
2021/07/26 11:26:02;;;;;;;4.75;4.30;;;;;;;24.15;55.02;100972.16;5038206;28;20033;-83
2021/07/26 11:28:36;;;;;;;5.20;4.70;;;;;;;24.14;55.17;100963.44;5071274;28;20506;-83